Terminal Aerodrome Forecast
Issued by NWS

Current Version | Previous Version | Text Only | Print | Product List | Glossary On
Versions: 1 2 3 4 5 6 7 8 9 10 11 12 13 14 15 16 17 18 19 20 21 22 23 24 25 26
000
FTUS45 KCYS 100600 RRA
TAFAIA
TAF
KAIA 100606Z 1006/1106 13010KT P6SM SCT100
     FM101500 18010KT P6SM SKC
     FM101900 22012G22KT P6SM VCTS SCT070CB
     FM110200 05006KT P6SM VCTS BKN060CB OVC140=

USA.gov is the U.S. government's official web portal to all federal, state and local government web resources and services.